Grand Coulee, Washington
Current Conditions -  °F | °C
As of 11:53 PM on Wednesday 28 Jan 2015 (Local Time) from KOMK Reporting Station
Overcast Overcast  
Wind Chill: 33°   Ceiling: 600
Heat Index: 33°   Visibility: 10mi
Dew Point: 30°   Wind: 3mph
Humidity: 89%   Direction: 230°SW
Pressure: 30.5"   Gusts: NA
Location:  47.94°N, 119°W
Report Text: KOMK 290753Z AUTO 23003KT 10SM OVC006 01/M01 A3050 RMK AO2 SLP344 T00061011 400220006
Loading
Personal Weather Stations






























Interactive Weather Map New forecast layout! Learn more

10-Day Weather Forecast

Advertisements
Track Severe Weather on mobile